sensor_id;sensor_type;location;lat;lon;timestamp;P1;durP1;ratioP1;P2;durP2;ratioP2
27187;SDS011;14708;50.872;5.306;2023-03-01T00:02:18;3.83;;;1.90;;
27187;SDS011;14708;50.872;5.306;2023-03-01T00:04:56;3.63;;;1.90;;
27187;SDS011;14708;50.872;5.306;2023-03-01T00:07:22;4.30;;;2.00;;
27187;SDS011;14708;50.872;5.306;2023-03-01T00:09:50;4.65;;;2.70;;
27187;SDS011;14708;50.872;5.306;2023-03-01T00:12:15;3.45;;;2.17;;
27187;SDS011;14708;50.872;5.306;2023-03-01T00:14:41;7.95;;;2.83;;
27187;SDS011;14708;50.872;5.306;2023-03-01T00:17:06;5.75;;;2.58;;
27187;SDS011;14708;50.872;5.306;2023-03-01T00:29:44;2.78;;;2.05;;
27187;SDS011;14708;50.872;5.306;2023-03-01T00:32:10;5.38;;;2.15;;
27187;SDS011;14708;50.872;5.306;2023-03-01T00:34:36;4.15;;;2.42;;
27187;SDS011;14708;50.872;5.306;2023-03-01T00:37:01;3.63;;;2.17;;
27187;SDS011;14708;50.872;5.306;2023-03-01T00:39:36;3.50;;;1.98;;
27187;SDS011;14708;50.872;5.306;2023-03-01T00:45:23;4.65;;;2.63;;
27187;SDS011;14708;50.872;5.306;2023-03-01T00:47:49;4.70;;;2.15;;
27187;SDS011;14708;50.872;5.306;2023-03-01T00:50:16;3.92;;;2.10;;
27187;SDS011;14708;50.872;5.306;2023-03-01T00:52:42;4.10;;;1.88;;
27187;SDS011;14708;50.872;5.306;2023-03-01T00:55:08;3.97;;;2.10;;
27187;SDS011;14708;50.872;5.306;2023-03-01T01:07:59;3.25;;;2.10;;
27187;SDS011;14708;50.872;5.306;2023-03-01T01:10:24;2.85;;;1.63;;
27187;SDS011;14708;50.872;5.306;2023-03-01T01:12:50;4.10;;;2.05;;
27187;SDS011;14708;50.872;5.306;2023-03-01T01:15:15;3.92;;;2.17;;
27187;SDS011;14708;50.872;5.306;2023-03-01T01:17:41;3.10;;;1.92;;
27187;SDS011;14708;50.872;5.306;2023-03-01T01:32:56;4.07;;;2.25;;
27187;SDS011;14708;50.872;5.306;2023-03-01T01:35:22;4.50;;;2.30;;
27187;SDS011;14708;50.872;5.306;2023-03-01T01:37:48;3.10;;;2.05;;
27187;SDS011;14708;50.872;5.306;2023-03-01T01:40:13;2.92;;;1.95;;
27187;SDS011;14708;50.872;5.306;2023-03-01T01:42:39;2.92;;;1.83;;
27187;SDS011;14708;50.872;5.306;2023-03-01T01:51:48;3.20;;;1.83;;
27187;SDS011;14708;50.872;5.306;2023-03-01T01:54:27;3.58;;;2.15;;
27187;SDS011;14708;50.872;5.306;2023-03-01T01:57:02;2.75;;;2.05;;
27187;SDS011;14708;50.872;5.306;2023-03-01T01:59:33;2.97;;;1.92;;
27187;SDS011;14708;50.872;5.306;2023-03-01T02:02:00;2.88;;;1.92;;
27187;SDS011;14708;50.872;5.306;2023-03-01T02:04:28;2.22;;;1.80;;
27187;SDS011;14708;50.872;5.306;2023-03-01T02:10:17;4.28;;;2.08;;
27187;SDS011;14708;50.872;5.306;2023-03-01T02:12:43;2.80;;;1.73;;
27187;SDS011;14708;50.872;5.306;2023-03-01T02:15:09;2.60;;;1.65;;
27187;SDS011;14708;50.872;5.306;2023-03-01T02:17:35;2.67;;;1.75;;
27187;SDS011;14708;50.872;5.306;2023-03-01T02:23:22;4.13;;;2.38;;
27187;SDS011;14708;50.872;5.306;2023-03-01T02:28:43;2.60;;;1.70;;
27187;SDS011;14708;50.872;5.306;2023-03-01T02:31:16;3.08;;;1.77;;
27187;SDS011;14708;50.872;5.306;2023-03-01T02:34:02;3.25;;;1.80;;
27187;SDS011;14708;50.872;5.306;2023-03-01T02:36:31;2.80;;;1.88;;
27187;SDS011;14708;50.872;5.306;2023-03-01T02:39:02;3.08;;;1.80;;
27187;SDS011;14708;50.872;5.306;2023-03-01T02:41:32;2.83;;;1.77;;
27187;SDS011;14708;50.872;5.306;2023-03-01T02:44:00;3.42;;;2.03;;
27187;SDS011;14708;50.872;5.306;2023-03-01T02:46:26;3.45;;;2.03;;
27187;SDS011;14708;50.872;5.306;2023-03-01T02:48:53;3.90;;;2.25;;
27187;SDS011;14708;50.872;5.306;2023-03-01T02:56:35;2.35;;;1.70;;
27187;SDS011;14708;50.872;5.306;2023-03-01T02:59:01;4.32;;;2.28;;
27187;SDS011;14708;50.872;5.306;2023-03-01T03:01:28;2.83;;;1.92;;
27187;SDS011;14708;50.872;5.306;2023-03-01T03:04:04;2.50;;;2.00;;
27187;SDS011;14708;50.872;5.306;2023-03-01T03:06:35;2.30;;;1.73;;
27187;SDS011;14708;50.872;5.306;2023-03-01T03:09:01;2.63;;;1.67;;
27187;SDS011;14708;50.872;5.306;2023-03-01T03:21:42;1.70;;;1.55;;
27187;SDS011;14708;50.872;5.306;2023-03-01T03:24:07;2.40;;;1.83;;
27187;SDS011;14708;50.872;5.306;2023-03-01T03:26:33;2.65;;;1.90;;
27187;SDS011;14708;50.872;5.306;2023-03-01T03:28:59;2.40;;;1.83;;
27187;SDS011;14708;50.872;5.306;2023-03-01T03:31:25;2.70;;;1.73;;
27187;SDS011;14708;50.872;5.306;2023-03-01T03:33:51;2.40;;;1.75;;
27187;SDS011;14708;50.872;5.306;2023-03-01T03:36:21;2.53;;;2.00;;
27187;SDS011;14708;50.872;5.306;2023-03-01T03:38:48;3.97;;;2.03;;
27187;SDS011;14708;50.872;5.306;2023-03-01T03:44:44;2.78;;;1.50;;
27187;SDS011;14708;50.872;5.306;2023-03-01T03:47:09;2.53;;;1.75;;
27187;SDS011;14708;50.872;5.306;2023-03-01T03:49:35;3.90;;;1.92;;
27187;SDS011;14708;50.872;5.306;2023-03-01T03:52:00;3.38;;;1.75;;
27187;SDS011;14708;50.872;5.306;2023-03-01T03:54:26;3.13;;;2.10;;
27187;SDS011;14708;50.872;5.306;2023-03-01T03:56:51;2.15;;;1.70;;
27187;SDS011;14708;50.872;5.306;2023-03-01T03:59:17;2.05;;;1.60;;
27187;SDS011;14708;50.872;5.306;2023-03-01T04:01:43;2.97;;;1.73;;
27187;SDS011;14708;50.872;5.306;2023-03-01T04:04:10;1.90;;;1.70;;
27187;SDS011;14708;50.872;5.306;2023-03-01T04:06:44;2.80;;;2.00;;
27187;SDS011;14708;50.872;5.306;2023-03-01T04:09:10;3.92;;;1.92;;
27187;SDS011;14708;50.872;5.306;2023-03-01T04:11:36;2.08;;;1.60;;
27187;SDS011;14708;50.872;5.306;2023-03-01T04:14:03;3.22;;;1.90;;
27187;SDS011;14708;50.872;5.306;2023-03-01T04:16:29;2.28;;;1.60;;
27187;SDS011;14708;50.872;5.306;2023-03-01T04:36:25;1.58;;;1.33;;
27187;SDS011;14708;50.872;5.306;2023-03-01T04:41:20;2.30;;;1.80;;
27187;SDS011;14708;50.872;5.306;2023-03-01T04:43:47;1.90;;;1.40;;
27187;SDS011;14708;50.872;5.306;2023-03-01T04:46:14;4.22;;;2.20;;
27187;SDS011;14708;50.872;5.306;2023-03-01T04:48:42;2.70;;;1.90;;
27187;SDS011;14708;50.872;5.306;2023-03-01T04:51:08;2.80;;;1.80;;
27187;SDS011;14708;50.872;5.306;2023-03-01T04:53:38;2.60;;;1.75;;
27187;SDS011;14708;50.872;5.306;2023-03-01T04:56:04;2.13;;;1.55;;
27187;SDS011;14708;50.872;5.306;2023-03-01T05:01:52;1.75;;;1.40;;
27187;SDS011;14708;50.872;5.306;2023-03-01T05:04:22;2.25;;;1.70;;
27187;SDS011;14708;50.872;5.306;2023-03-01T05:06:49;3.17;;;1.63;;
27187;SDS011;14708;50.872;5.306;2023-03-01T05:09:15;2.05;;;1.30;;
27187;SDS011;14708;50.872;5.306;2023-03-01T05:15:03;2.85;;;1.65;;
27187;SDS011;14708;50.872;5.306;2023-03-01T05:17:32;1.85;;;1.40;;
27187;SDS011;14708;50.872;5.306;2023-03-01T05:19:59;2.15;;;1.85;;
27187;SDS011;14708;50.872;5.306;2023-03-01T05:22:25;2.03;;;1.60;;
27187;SDS011;14708;50.872;5.306;2023-03-01T05:24:50;2.92;;;1.95;;
27187;SDS011;14708;50.872;5.306;2023-03-01T05:27:16;1.67;;;1.40;;
27187;SDS011;14708;50.872;5.306;2023-03-01T05:29:42;3.05;;;1.83;;
27187;SDS011;14708;50.872;5.306;2023-03-01T05:32:07;2.13;;;1.50;;
27187;SDS011;14708;50.872;5.306;2023-03-01T05:34:34;2.55;;;1.60;;
27187;SDS011;14708;50.872;5.306;2023-03-01T05:37:01;2.58;;;1.77;;
27187;SDS011;14708;50.872;5.306;2023-03-01T05:39:28;1.92;;;1.52;;
27187;SDS011;14708;50.872;5.306;2023-03-01T05:41:55;2.97;;;1.88;;
27187;SDS011;14708;50.872;5.306;2023-03-01T05:47:42;1.90;;;1.50;;
27187;SDS011;14708;50.872;5.306;2023-03-01T05:50:13;2.30;;;1.45;;
27187;SDS011;14708;50.872;5.306;2023-03-01T05:52:50;1.85;;;1.40;;
27187;SDS011;14708;50.872;5.306;2023-03-01T05:55:29;1.30;;;1.15;;
27187;SDS011;14708;50.872;5.306;2023-03-01T06:00:45;1.80;;;1.50;;
27187;SDS011;14708;50.872;5.306;2023-03-01T06:03:13;2.00;;;1.48;;
27187;SDS011;14708;50.872;5.306;2023-03-01T06:05:41;2.83;;;1.88;;
27187;SDS011;14708;50.872;5.306;2023-03-01T06:08:08;1.85;;;1.60;;
27187;SDS011;14708;50.872;5.306;2023-03-01T06:10:35;2.33;;;1.70;;
27187;SDS011;14708;50.872;5.306;2023-03-01T06:13:00;2.85;;;1.60;;
27187;SDS011;14708;50.872;5.306;2023-03-01T06:15:26;4.03;;;1.63;;
27187;SDS011;14708;50.872;5.306;2023-03-01T06:17:53;2.75;;;1.40;;
27187;SDS011;14708;50.872;5.306;2023-03-01T06:20:29;3.25;;;1.65;;
27187;SDS011;14708;50.872;5.306;2023-03-01T06:22:55;4.57;;;1.33;;
27187;SDS011;14708;50.872;5.306;2023-03-01T06:25:22;4.43;;;1.50;;
27187;SDS011;14708;50.872;5.306;2023-03-01T06:27:49;6.68;;;1.70;;
27187;SDS011;14708;50.872;5.306;2023-03-01T06:30:18;2.40;;;1.45;;
27187;SDS011;14708;50.872;5.306;2023-03-01T06:32:45;3.83;;;1.55;;
27187;SDS011;14708;50.872;5.306;2023-03-01T06:39:12;5.18;;;1.70;;
27187;SDS011;14708;50.872;5.306;2023-03-01T06:41:41;6.95;;;1.95;;
27187;SDS011;14708;50.872;5.306;2023-03-01T06:44:06;5.20;;;1.88;;
27187;SDS011;14708;50.872;5.306;2023-03-01T06:46:38;4.07;;;1.70;;
27187;SDS011;14708;50.872;5.306;2023-03-01T06:49:04;5.03;;;2.05;;
27187;SDS011;14708;50.872;5.306;2023-03-01T06:51:34;3.00;;;1.55;;
27187;SDS011;14708;50.872;5.306;2023-03-01T07:00:52;4.10;;;1.70;;
27187;SDS011;14708;50.872;5.306;2023-03-01T07:03:18;2.47;;;1.88;;
27187;SDS011;14708;50.872;5.306;2023-03-01T07:05:43;4.32;;;1.88;;
27187;SDS011;14708;50.872;5.306;2023-03-01T07:08:09;3.53;;;2.05;;
27187;SDS011;14708;50.872;5.306;2023-03-01T07:10:35;7.20;;;2.03;;
27187;SDS011;14708;50.872;5.306;2023-03-01T07:13:01;11.40;;;1.75;;
27187;SDS011;14708;50.872;5.306;2023-03-01T07:15:27;2.38;;;1.70;;
27187;SDS011;14708;50.872;5.306;2023-03-01T07:17:53;3.55;;;1.65;;
27187;SDS011;14708;50.872;5.306;2023-03-01T07:34:05;4.57;;;1.77;;
27187;SDS011;14708;50.872;5.306;2023-03-01T07:36:30;17.83;;;3.22;;
27187;SDS011;14708;50.872;5.306;2023-03-01T07:38:56;17.88;;;3.45;;
27187;SDS011;14708;50.872;5.306;2023-03-01T07:41:22;8.98;;;2.40;;
27187;SDS011;14708;50.872;5.306;2023-03-01T07:43:51;18.10;;;3.97;;
27187;SDS011;14708;50.872;5.306;2023-03-01T07:46:17;20.35;;;4.45;;
27187;SDS011;14708;50.872;5.306;2023-03-01T07:52:24;13.70;;;3.72;;
27187;SDS011;14708;50.872;5.306;2023-03-01T07:54:50;16.02;;;3.95;;
27187;SDS011;14708;50.872;5.306;2023-03-01T07:57:15;10.18;;;3.90;;
27187;SDS011;14708;50.872;5.306;2023-03-01T07:59:41;13.02;;;4.43;;
27187;SDS011;14708;50.872;5.306;2023-03-01T08:02:07;16.90;;;4.30;;
27187;SDS011;14708;50.872;5.306;2023-03-01T08:04:33;17.45;;;4.40;;
27187;SDS011;14708;50.872;5.306;2023-03-01T08:07:05;17.30;;;4.57;;
27187;SDS011;14708;50.872;5.306;2023-03-01T08:09:31;22.15;;;5.55;;
27187;SDS011;14708;50.872;5.306;2023-03-01T08:11:59;22.30;;;5.70;;
27187;SDS011;14708;50.872;5.306;2023-03-01T08:14:32;27.85;;;6.72;;
27187;SDS011;14708;50.872;5.306;2023-03-01T08:16:58;18.23;;;5.38;;
27187;SDS011;14708;50.872;5.306;2023-03-01T08:19:23;24.48;;;6.10;;
27187;SDS011;14708;50.872;5.306;2023-03-01T08:21:49;19.00;;;6.25;;
27187;SDS011;14708;50.872;5.306;2023-03-01T08:24:15;35.30;;;7.07;;
27187;SDS011;14708;50.872;5.306;2023-03-01T08:26:40;20.10;;;5.80;;
27187;SDS011;14708;50.872;5.306;2023-03-01T08:29:06;21.30;;;5.57;;
27187;SDS011;14708;50.872;5.306;2023-03-01T08:31:33;20.33;;;5.65;;
27187;SDS011;14708;50.872;5.306;2023-03-01T08:34:02;25.75;;;6.43;;
27187;SDS011;14708;50.872;5.306;2023-03-01T08:36:34;20.55;;;6.00;;
27187;SDS011;14708;50.872;5.306;2023-03-01T08:39:02;24.52;;;6.35;;
27187;SDS011;14708;50.872;5.306;2023-03-01T08:41:28;22.63;;;6.25;;
27187;SDS011;14708;50.872;5.306;2023-03-01T08:43:54;16.02;;;5.45;;
27187;SDS011;14708;50.872;5.306;2023-03-01T08:46:42;23.08;;;6.50;;
27187;SDS011;14708;50.872;5.306;2023-03-01T08:49:14;17.23;;;5.35;;
27187;SDS011;14708;50.872;5.306;2023-03-01T08:51:42;22.35;;;6.07;;
27187;SDS011;14708;50.872;5.306;2023-03-01T08:54:13;21.42;;;5.55;;
27187;SDS011;14708;50.872;5.306;2023-03-01T08:56:43;15.98;;;4.93;;
27187;SDS011;14708;50.872;5.306;2023-03-01T08:59:13;19.25;;;5.50;;
27187;SDS011;14708;50.872;5.306;2023-03-01T09:01:40;13.68;;;5.20;;
27187;SDS011;14708;50.872;5.306;2023-03-01T09:04:08;23.95;;;5.93;;
27187;SDS011;14708;50.872;5.306;2023-03-01T09:06:34;17.92;;;5.10;;
27187;SDS011;14708;50.872;5.306;2023-03-01T09:09:01;21.38;;;5.53;;
27187;SDS011;14708;50.872;5.306;2023-03-01T09:11:37;17.58;;;5.38;;
27187;SDS011;14708;50.872;5.306;2023-03-01T09:14:04;19.83;;;5.78;;
27187;SDS011;14708;50.872;5.306;2023-03-01T09:16:30;20.63;;;6.07;;
27187;SDS011;14708;50.872;5.306;2023-03-01T09:25:49;13.60;;;5.40;;
27187;SDS011;14708;50.872;5.306;2023-03-01T09:28:15;17.20;;;5.00;;
27187;SDS011;14708;50.872;5.306;2023-03-01T09:30:41;16.30;;;5.45;;
27187;SDS011;14708;50.872;5.306;2023-03-01T09:33:06;12.20;;;5.10;;
27187;SDS011;14708;50.872;5.306;2023-03-01T09:35:32;15.05;;;5.15;;
27187;SDS011;14708;50.872;5.306;2023-03-01T09:37:57;23.25;;;5.60;;
27187;SDS011;14708;50.872;5.306;2023-03-01T09:40:24;19.00;;;5.63;;
27187;SDS011;14708;50.872;5.306;2023-03-01T09:45:24;21.33;;;6.07;;
27187;SDS011;14708;50.872;5.306;2023-03-01T09:48:02;21.55;;;5.78;;
27187;SDS011;14708;50.872;5.306;2023-03-01T09:50:38;23.23;;;5.80;;
27187;SDS011;14708;50.872;5.306;2023-03-01T09:53:08;18.65;;;5.50;;
27187;SDS011;14708;50.872;5.306;2023-03-01T09:55:48;17.98;;;5.72;;
27187;SDS011;14708;50.872;5.306;2023-03-01T10:01:21;18.05;;;5.60;;
27187;SDS011;14708;50.872;5.306;2023-03-01T10:29:31;41.50;;;11.55;;
27187;SDS011;14708;50.872;5.306;2023-03-01T10:32:04;30.58;;;9.80;;
27187;SDS011;14708;50.872;5.306;2023-03-01T10:34:34;33.72;;;8.65;;
27187;SDS011;14708;50.872;5.306;2023-03-01T10:51:49;30.15;;;9.57;;
27187;SDS011;14708;50.872;5.306;2023-03-01T10:54:18;24.35;;;8.80;;
27187;SDS011;14708;50.872;5.306;2023-03-01T10:56:53;26.52;;;9.18;;
27187;SDS011;14708;50.872;5.306;2023-03-01T11:02:43;23.45;;;9.27;;
27187;SDS011;14708;50.872;5.306;2023-03-01T11:07:53;30.57;;;9.43;;
27187;SDS011;14708;50.872;5.306;2023-03-01T11:10:25;35.38;;;10.10;;
27187;SDS011;14708;50.872;5.306;2023-03-01T11:12:53;25.83;;;9.13;;
27187;SDS011;14708;50.872;5.306;2023-03-01T11:15:30;26.02;;;8.40;;
27187;SDS011;14708;50.872;5.306;2023-03-01T11:17:56;26.10;;;8.68;;
27187;SDS011;14708;50.872;5.306;2023-03-01T11:23:26;28.23;;;8.73;;
27187;SDS011;14708;50.872;5.306;2023-03-01T11:26:01;29.85;;;9.10;;
27187;SDS011;14708;50.872;5.306;2023-03-01T11:28:30;25.40;;;8.95;;
27187;SDS011;14708;50.872;5.306;2023-03-01T11:38:40;23.30;;;8.10;;
27187;SDS011;14708;50.872;5.306;2023-03-01T11:41:08;27.38;;;8.13;;
27187;SDS011;14708;50.872;5.306;2023-03-01T11:50:50;27.35;;;8.90;;
27187;SDS011;14708;50.872;5.306;2023-03-01T12:11:36;22.40;;;7.82;;
27187;SDS011;14708;50.872;5.306;2023-03-01T12:14:25;21.40;;;8.63;;
27187;SDS011;14708;50.872;5.306;2023-03-01T12:29:31;17.80;;;7.28;;
27187;SDS011;14708;50.872;5.306;2023-03-01T12:35:04;19.95;;;7.88;;
27187;SDS011;14708;50.872;5.306;2023-03-01T12:49:13;13.70;;;6.25;;
27187;SDS011;14708;50.872;5.306;2023-03-01T12:54:38;15.60;;;6.20;;
27187;SDS011;14708;50.872;5.306;2023-03-01T13:08:35;49.55;;;16.15;;
27187;SDS011;14708;50.872;5.306;2023-03-01T13:11:15;49.97;;;15.18;;
27187;SDS011;14708;50.872;5.306;2023-03-01T13:13:46;56.60;;;17.15;;
27187;SDS011;14708;50.872;5.306;2023-03-01T13:23:01;60.83;;;17.55;;
27187;SDS011;14708;50.872;5.306;2023-03-01T13:25:27;68.18;;;18.85;;
27187;SDS011;14708;50.872;5.306;2023-03-01T13:27:53;67.60;;;18.35;;
27187;SDS011;14708;50.872;5.306;2023-03-01T13:30:56;61.35;;;17.80;;
27187;SDS011;14708;50.872;5.306;2023-03-01T13:35:54;48.25;;;17.98;;
27187;SDS011;14708;50.872;5.306;2023-03-01T13:41:11;60.08;;;18.67;;
27187;SDS011;14708;50.872;5.306;2023-03-01T13:43:42;51.42;;;16.17;;
27187;SDS011;14708;50.872;5.306;2023-03-01T13:46:20;51.63;;;17.98;;
27187;SDS011;14708;50.872;5.306;2023-03-01T13:48:52;49.80;;;16.77;;
27187;SDS011;14708;50.872;5.306;2023-03-01T13:51:22;48.05;;;16.63;;
27187;SDS011;14708;50.872;5.306;2023-03-01T13:53:50;55.22;;;17.00;;
27187;SDS011;14708;50.872;5.306;2023-03-01T13:56:19;50.58;;;16.63;;
27187;SDS011;14708;50.872;5.306;2023-03-01T13:58:50;42.85;;;16.13;;
27187;SDS011;14708;50.872;5.306;2023-03-01T14:01:29;41.45;;;16.05;;
27187;SDS011;14708;50.872;5.306;2023-03-01T14:10:48;39.97;;;15.13;;
27187;SDS011;14708;50.872;5.306;2023-03-01T14:13:47;40.50;;;14.02;;
27187;SDS011;14708;50.872;5.306;2023-03-01T14:16:31;43.75;;;14.95;;
27187;SDS011;14708;50.872;5.306;2023-03-01T14:19:23;36.92;;;14.05;;
27187;SDS011;14708;50.872;5.306;2023-03-01T14:24:44;38.00;;;14.65;;
27187;SDS011;14708;50.872;5.306;2023-03-01T14:41:06;31.08;;;13.68;;
27187;SDS011;14708;50.872;5.306;2023-03-01T14:43:46;30.95;;;12.43;;
27187;SDS011;14708;50.872;5.306;2023-03-01T14:46:22;28.83;;;13.25;;
27187;SDS011;14708;50.872;5.306;2023-03-01T14:51:23;32.28;;;11.60;;
27187;SDS011;14708;50.872;5.306;2023-03-01T14:53:49;31.85;;;13.02;;
27187;SDS011;14708;50.872;5.306;2023-03-01T14:56:16;36.35;;;12.45;;
27187;SDS011;14708;50.872;5.306;2023-03-01T14:58:43;30.48;;;12.43;;
27187;SDS011;14708;50.872;5.306;2023-03-01T15:01:10;32.88;;;11.90;;
27187;SDS011;14708;50.872;5.306;2023-03-01T15:03:44;30.50;;;12.57;;
27187;SDS011;14708;50.872;5.306;2023-03-01T15:23:04;24.98;;;10.88;;
27187;SDS011;14708;50.872;5.306;2023-03-01T15:25:31;30.05;;;10.75;;
27187;SDS011;14708;50.872;5.306;2023-03-01T15:27:58;31.38;;;11.38;;
27187;SDS011;14708;50.872;5.306;2023-03-01T15:30:27;28.45;;;11.20;;
27187;SDS011;14708;50.872;5.306;2023-03-01T15:35:53;27.38;;;10.45;;
27187;SDS011;14708;50.872;5.306;2023-03-01T15:41:26;27.20;;;10.48;;
27187;SDS011;14708;50.872;5.306;2023-03-01T15:43:55;30.20;;;11.75;;
27187;SDS011;14708;50.872;5.306;2023-03-01T15:49:04;24.08;;;10.02;;
27187;SDS011;14708;50.872;5.306;2023-03-01T15:51:50;29.33;;;10.63;;
27187;SDS011;14708;50.872;5.306;2023-03-01T15:54:21;24.70;;;10.77;;
27187;SDS011;14708;50.872;5.306;2023-03-01T15:56:50;24.13;;;10.27;;
27187;SDS011;14708;50.872;5.306;2023-03-01T15:59:16;24.10;;;9.50;;
27187;SDS011;14708;50.872;5.306;2023-03-01T16:01:43;28.13;;;10.43;;
27187;SDS011;14708;50.872;5.306;2023-03-01T16:04:10;23.77;;;9.48;;
27187;SDS011;14708;50.872;5.306;2023-03-01T16:06:45;25.38;;;9.70;;
27187;SDS011;14708;50.872;5.306;2023-03-01T16:22:45;20.60;;;7.82;;
27187;SDS011;14708;50.872;5.306;2023-03-01T16:25:15;22.08;;;8.52;;
27187;SDS011;14708;50.872;5.306;2023-03-01T16:27:42;25.63;;;8.82;;
27187;SDS011;14708;50.872;5.306;2023-03-01T16:30:09;18.02;;;8.65;;
27187;SDS011;14708;50.872;5.306;2023-03-01T16:32:39;22.67;;;9.35;;
27187;SDS011;14708;50.872;5.306;2023-03-01T16:35:10;22.83;;;8.57;;
27187;SDS011;14708;50.872;5.306;2023-03-01T16:37:37;20.25;;;8.35;;
27187;SDS011;14708;50.872;5.306;2023-03-01T16:40:05;27.90;;;8.68;;
27187;SDS011;14708;50.872;5.306;2023-03-01T16:42:36;85.43;;;12.13;;
27187;SDS011;14708;50.872;5.306;2023-03-01T16:45:02;68.53;;;10.60;;
27187;SDS011;14708;50.872;5.306;2023-03-01T16:47:29;71.43;;;11.15;;
27187;SDS011;14708;50.872;5.306;2023-03-01T16:49:54;37.80;;;9.15;;
27187;SDS011;14708;50.872;5.306;2023-03-01T16:52:21;30.20;;;8.10;;
27187;SDS011;14708;50.872;5.306;2023-03-01T16:54:47;55.30;;;9.40;;
27187;SDS011;14708;50.872;5.306;2023-03-01T16:57:18;43.92;;;9.98;;
27187;SDS011;14708;50.872;5.306;2023-03-01T16:59:44;47.10;;;8.73;;
27187;SDS011;14708;50.872;5.306;2023-03-01T17:15:25;34.10;;;8.73;;
27187;SDS011;14708;50.872;5.306;2023-03-01T17:17:51;35.17;;;7.88;;
27187;SDS011;14708;50.872;5.306;2023-03-01T17:20:16;32.50;;;8.52;;
27187;SDS011;14708;50.872;5.306;2023-03-01T17:22:42;32.72;;;8.15;;
27187;SDS011;14708;50.872;5.306;2023-03-01T17:25:09;28.42;;;9.35;;
27187;SDS011;14708;50.872;5.306;2023-03-01T17:27:36;30.15;;;7.70;;
27187;SDS011;14708;50.872;5.306;2023-03-01T17:36:46;30.65;;;7.00;;
27187;SDS011;14708;50.872;5.306;2023-03-01T17:39:14;23.02;;;7.57;;
27187;SDS011;14708;50.872;5.306;2023-03-01T17:41:41;24.17;;;7.40;;
27187;SDS011;14708;50.872;5.306;2023-03-01T17:44:07;29.27;;;6.82;;
27187;SDS011;14708;50.872;5.306;2023-03-01T17:46:45;22.75;;;6.82;;
27187;SDS011;14708;50.872;5.306;2023-03-01T17:49:11;20.45;;;7.13;;
27187;SDS011;14708;50.872;5.306;2023-03-01T17:51:37;25.10;;;6.57;;
27187;SDS011;14708;50.872;5.306;2023-03-01T17:54:03;14.15;;;6.70;;
27187;SDS011;14708;50.872;5.306;2023-03-01T17:56:29;21.27;;;6.97;;
27187;SDS011;14708;50.872;5.306;2023-03-01T17:59:06;15.40;;;6.47;;
27187;SDS011;14708;50.872;5.306;2023-03-01T18:01:31;15.98;;;6.28;;
27187;SDS011;14708;50.872;5.306;2023-03-01T18:03:59;23.80;;;7.35;;
27187;SDS011;14708;50.872;5.306;2023-03-01T18:06:25;27.77;;;7.00;;
27187;SDS011;14708;50.872;5.306;2023-03-01T18:08:52;24.55;;;6.65;;
27187;SDS011;14708;50.872;5.306;2023-03-01T18:11:19;18.63;;;6.30;;
27187;SDS011;14708;50.872;5.306;2023-03-01T18:13:49;19.05;;;7.28;;
27187;SDS011;14708;50.872;5.306;2023-03-01T18:16:16;19.58;;;6.55;;
27187;SDS011;14708;50.872;5.306;2023-03-01T18:18:43;14.88;;;6.07;;
27187;SDS011;14708;50.872;5.306;2023-03-01T18:24:34;15.15;;;5.88;;
27187;SDS011;14708;50.872;5.306;2023-03-01T18:27:00;12.57;;;5.97;;
27187;SDS011;14708;50.872;5.306;2023-03-01T18:29:26;17.48;;;5.72;;
27187;SDS011;14708;50.872;5.306;2023-03-01T18:31:52;18.02;;;6.22;;
27187;SDS011;14708;50.872;5.306;2023-03-01T18:34:18;20.52;;;6.95;;
27187;SDS011;14708;50.872;5.306;2023-03-01T18:36:44;13.68;;;6.13;;
27187;SDS011;14708;50.872;5.306;2023-03-01T18:39:10;15.35;;;5.68;;
27187;SDS011;14708;50.872;5.306;2023-03-01T18:41:35;16.10;;;5.82;;
27187;SDS011;14708;50.872;5.306;2023-03-01T18:44:02;12.82;;;5.45;;
27187;SDS011;14708;50.872;5.306;2023-03-01T18:46:29;21.33;;;6.53;;
27187;SDS011;14708;50.872;5.306;2023-03-01T18:49:05;19.35;;;5.80;;
27187;SDS011;14708;50.872;5.306;2023-03-01T18:51:32;14.43;;;5.25;;
27187;SDS011;14708;50.872;5.306;2023-03-01T18:53:59;16.40;;;6.57;;
27187;SDS011;14708;50.872;5.306;2023-03-01T18:59:47;18.45;;;6.57;;
27187;SDS011;14708;50.872;5.306;2023-03-01T19:02:13;15.02;;;6.45;;
27187;SDS011;14708;50.872;5.306;2023-03-01T19:04:39;13.38;;;5.47;;
27187;SDS011;14708;50.872;5.306;2023-03-01T19:07:06;15.25;;;5.47;;
27187;SDS011;14708;50.872;5.306;2023-03-01T19:09:32;11.68;;;5.70;;
27187;SDS011;14708;50.872;5.306;2023-03-01T19:11:57;12.20;;;5.35;;
27187;SDS011;14708;50.872;5.306;2023-03-01T19:17:47;14.02;;;4.97;;
27187;SDS011;14708;50.872;5.306;2023-03-01T19:20:13;10.85;;;4.68;;
27187;SDS011;14708;50.872;5.306;2023-03-01T19:22:39;14.02;;;5.70;;
27187;SDS011;14708;50.872;5.306;2023-03-01T19:25:04;14.65;;;5.68;;
27187;SDS011;14708;50.872;5.306;2023-03-01T19:27:30;8.00;;;4.57;;
27187;SDS011;14708;50.872;5.306;2023-03-01T19:29:56;11.88;;;4.85;;
27187;SDS011;14708;50.872;5.306;2023-03-01T19:32:22;13.05;;;5.22;;
27187;SDS011;14708;50.872;5.306;2023-03-01T19:34:47;14.32;;;4.88;;
27187;SDS011;14708;50.872;5.306;2023-03-01T19:37:13;14.15;;;5.90;;
27187;SDS011;14708;50.872;5.306;2023-03-01T19:43:10;14.20;;;4.55;;
27187;SDS011;14708;50.872;5.306;2023-03-01T19:45:36;12.68;;;4.90;;
27187;SDS011;14708;50.872;5.306;2023-03-01T19:48:02;11.73;;;5.15;;
27187;SDS011;14708;50.872;5.306;2023-03-01T19:50:27;10.10;;;5.07;;
27187;SDS011;14708;50.872;5.306;2023-03-01T19:52:53;13.75;;;4.60;;
27187;SDS011;14708;50.872;5.306;2023-03-01T19:58:40;10.27;;;4.40;;
27187;SDS011;14708;50.872;5.306;2023-03-01T20:01:17;11.77;;;5.25;;
27187;SDS011;14708;50.872;5.306;2023-03-01T20:03:44;11.20;;;4.82;;
27187;SDS011;14708;50.872;5.306;2023-03-01T20:06:15;12.63;;;4.57;;
27187;SDS011;14708;50.872;5.306;2023-03-01T20:08:44;10.13;;;4.93;;
27187;SDS011;14708;50.872;5.306;2023-03-01T20:11:11;11.85;;;4.90;;
27187;SDS011;14708;50.872;5.306;2023-03-01T20:13:38;7.18;;;4.15;;
27187;SDS011;14708;50.872;5.306;2023-03-01T20:16:04;8.48;;;4.72;;
27187;SDS011;14708;50.872;5.306;2023-03-01T20:18:30;9.48;;;3.95;;
27187;SDS011;14708;50.872;5.306;2023-03-01T20:20:57;8.77;;;4.75;;
27187;SDS011;14708;50.872;5.306;2023-03-01T20:23:24;12.38;;;5.10;;
27187;SDS011;14708;50.872;5.306;2023-03-01T20:25:50;8.75;;;4.45;;
27187;SDS011;14708;50.872;5.306;2023-03-01T20:28:17;11.40;;;4.43;;
27187;SDS011;14708;50.872;5.306;2023-03-01T20:30:43;11.15;;;4.38;;
27187;SDS011;14708;50.872;5.306;2023-03-01T20:33:10;7.68;;;3.75;;
27187;SDS011;14708;50.872;5.306;2023-03-01T20:35:36;8.32;;;4.53;;
27187;SDS011;14708;50.872;5.306;2023-03-01T20:38:05;9.93;;;4.40;;
27187;SDS011;14708;50.872;5.306;2023-03-01T20:40:31;7.88;;;3.70;;
27187;SDS011;14708;50.872;5.306;2023-03-01T20:42:57;12.27;;;3.92;;
27187;SDS011;14708;50.872;5.306;2023-03-01T20:45:28;8.33;;;3.80;;
27187;SDS011;14708;50.872;5.306;2023-03-01T20:47:53;8.88;;;4.35;;
27187;SDS011;14708;50.872;5.306;2023-03-01T20:50:19;8.80;;;4.72;;
27187;SDS011;14708;50.872;5.306;2023-03-01T20:52:45;10.93;;;3.92;;
27187;SDS011;14708;50.872;5.306;2023-03-01T20:55:11;7.45;;;4.18;;
27187;SDS011;14708;50.872;5.306;2023-03-01T20:57:37;7.28;;;3.90;;
27187;SDS011;14708;50.872;5.306;2023-03-01T21:00:03;8.70;;;4.30;;
27187;SDS011;14708;50.872;5.306;2023-03-01T21:02:30;9.82;;;3.95;;
27187;SDS011;14708;50.872;5.306;2023-03-01T21:04:56;7.95;;;3.90;;
27187;SDS011;14708;50.872;5.306;2023-03-01T21:07:22;11.93;;;4.53;;
27187;SDS011;14708;50.872;5.306;2023-03-01T21:09:47;8.63;;;4.18;;